Time;durP1;ratioP1;P1;durP2;ratioP2;P2;SDS_P1;SDS_P2;PMS_P1;PMS_P2;Temp;Humidity;BMP_temperature;BMP_pressure;BME280_temperature;BME280_humidity;BME280_pressure;Samples;Min_cycle;Max_cycle;Signal;HPM_P1;HPM_P2
2022/11/02 00:00:02;;;;;;;;;;;23.80;63.40;;;;;;1536114;75;652;-58
2022/11/02 00:02:04;;;;;;;;;;;23.80;63.20;;;;;;1548891;75;1321;-57
2022/11/02 00:04:06;;;;;;;;;;;23.90;63.10;;;;;;1543291;75;746;-58
2022/11/02 00:06:07;;;;;;;;;;;23.90;63.00;;;;;;1545253;75;1181;-58
2022/11/02 00:08:09;;;;;;;;;;;23.90;62.90;;;;;;1538976;76;732;-54
2022/11/02 00:10:11;;;;;;;;;;;23.90;63.00;;;;;;1564011;75;701;-57
2022/11/02 00:12:13;;;;;;;;;;;23.90;62.80;;;;;;1556743;75;749;-55
2022/11/02 00:14:15;;;;;;;;;;;23.90;62.80;;;;;;1548629;76;749;-58
2022/11/02 00:16:17;;;;;;;;;;;23.90;62.70;;;;;;1539815;75;1545;-57
2022/11/02 00:18:19;;;;;;;;;;;23.90;62.90;;;;;;1541675;75;1921;-58
2022/11/02 00:20:21;;;;;;;;;;;23.90;62.80;;;;;;1543649;75;768;-58
2022/11/02 00:22:23;;;;;;;;;;;23.90;62.70;;;;;;1537542;75;763;-58
2022/11/02 00:24:25;;;;;;;;;;;23.90;62.80;;;;;;1540313;75;805;-57
2022/11/02 00:26:27;;;;;;;;;;;23.90;62.80;;;;;;1551788;75;1154;-57
2022/11/02 00:28:29;;;;;;;;;;;23.90;63.10;;;;;;1552584;75;667;-56
2022/11/02 00:30:31;;;;;;;;;;;23.90;63.10;;;;;;1548969;75;1583;-57
2022/11/02 00:32:33;;;;;;;;;;;23.90;63.00;;;;;;1539138;75;716;-53
2022/11/02 00:34:35;;;;;;;;;;;23.80;63.10;;;;;;1548778;75;754;-58
2022/11/02 00:36:36;;;;;;;;;;;23.90;63.10;;;;;;1549222;75;1129;-57
2022/11/02 00:38:39;;;;;;;;;;;23.90;63.10;;;;;;1547858;75;1913;-58
2022/11/02 00:40:41;;;;;;;;;;;23.80;63.00;;;;;;1551026;75;743;-58
2022/11/02 00:42:43;;;;;;;;;;;23.80;63.10;;;;;;1550653;75;776;-58
2022/11/02 00:44:44;;;;;;;;;;;23.80;63.20;;;;;;1550175;75;1578;-57
2022/11/02 00:46:46;;;;;;;;;;;23.80;63.10;;;;;;1536938;75;1200;-57
2022/11/02 00:48:48;;;;;;;;;;;23.80;63.30;;;;;;1563062;75;708;-56
2022/11/02 00:50:50;;;;;;;;;;;23.70;63.40;;;;;;1548948;75;759;-58
2022/11/02 00:52:52;;;;;;;;;;;23.70;63.40;;;;;;1531702;75;936;-57
2022/11/02 00:54:54;;;;;;;;;;;23.70;63.50;;;;;;1548488;75;732;-58
2022/11/02 00:56:56;;;;;;;;;;;23.70;63.70;;;;;;1526934;75;1144;-58
2022/11/02 00:58:58;;;;;;;;;;;23.70;63.70;;;;;;1543627;75;1937;-58
2022/11/02 01:01:01;;;;;;;;;;;23.70;63.80;;;;;;1549512;75;679;-56
2022/11/02 01:03:03;;;;;;;;;;;23.70;63.70;;;;;;1524437;77;1926;-57
2022/11/02 01:05:05;;;;;;;;;;;23.70;63.60;;;;;;1527922;77;823;-57
2022/11/02 01:07:07;;;;;;;;;;;23.70;63.50;;;;;;1516641;76;1204;-58
2022/11/02 01:09:09;;;;;;;;;;;23.80;63.60;;;;;;1519576;77;776;-57
2022/11/02 01:11:12;;;;;;;;;;;23.70;63.50;;;;;;1523295;77;1535;-57
2022/11/02 01:13:14;;;;;;;;;;;23.70;63.50;;;;;;1525730;76;710;-57
2022/11/02 01:15:16;;;;;;;;;;;23.70;63.60;;;;;;1522042;77;945;-58
2022/11/02 01:17:18;;;;;;;;;;;23.70;63.60;;;;;;1527312;77;1166;-57
2022/11/02 01:19:19;;;;;;;;;;;23.70;63.60;;;;;;1514755;77;1937;-57
2022/11/02 01:21:21;;;;;;;;;;;23.70;63.40;;;;;;1526746;76;753;-55
2022/11/02 01:23:24;;;;;;;;;;;23.70;63.30;;;;;;1509865;77;729;-57
2022/11/02 01:25:26;;;;;;;;;;;23.80;63.20;;;;;;1522716;76;1555;-57
2022/11/02 01:27:28;;;;;;;;;;;23.80;63.20;;;;;;1525985;77;1095;-56
2022/11/02 01:29:30;;;;;;;;;;;23.70;63.30;;;;;;1531929;76;740;-55
2022/11/02 01:31:31;;;;;;;;;;;23.60;63.20;;;;;;1528303;76;839;-57
2022/11/02 01:33:33;;;;;;;;;;;23.70;63.40;;;;;;1529658;77;829;-57
2022/11/02 01:35:38;;;;;;;;;;;23.70;63.30;;;;;;1527778;77;678;-58
2022/11/02 01:37:40;;;;;;;;;;;23.70;63.30;;;;;;1522980;77;1135;-54
2022/11/02 01:39:42;;;;;;;;;;;23.70;63.40;;;;;;1512098;76;1951;-58
2022/11/02 01:41:44;;;;;;;;;;;23.70;63.40;;;;;;1512313;77;751;-58
2022/11/02 01:43:46;;;;;;;;;;;23.70;63.50;;;;;;1514156;76;820;-57
2022/11/02 01:45:49;;;;;;;;;;;23.60;63.50;;;;;;1523121;76;1371;-58
2022/11/02 01:47:51;;;;;;;;;;;23.70;63.60;;;;;;1518307;77;1244;-57
2022/11/02 01:50:03;;;;;;;;;;;23.60;63.40;;;;;;1531717;77;794;-57
2022/11/02 01:52:06;;;;;;;;;;;23.60;63.40;;;;;;1533346;77;798;-56
2022/11/02 01:54:09;;;;;;;;;;;23.60;63.60;;;;;;1521711;77;1514;-57
2022/11/02 01:56:12;;;;;;;;;;;23.60;63.70;;;;;;1520995;76;1152;-57
2022/11/02 01:58:14;;;;;;;;;;;23.60;63.80;;;;;;1517558;77;783;-57
2022/11/02 02:00:16;;;;;;;;;;;23.50;63.70;;;;;;1494865;78;1946;-58
2022/11/02 02:02:19;;;;;;;;;;;23.60;63.70;;;;;;1534796;76;991;-57
2022/11/02 02:04:21;;;;;;;;;;;23.60;63.70;;;;;;1546137;75;1052;-58
2022/11/02 02:06:27;;;;;;;;;;;23.60;63.80;;;;;;1550658;75;1175;-58
2022/11/02 02:08:27;;;;;;;;;;;23.60;63.90;;;;;;1554493;75;1524;-57
2022/11/02 02:10:29;;;;;;;;;;;23.50;64.10;;;;;;1559700;75;830;-58
2022/11/02 02:12:30;;;;;;;;;;;23.50;64.10;;;;;;1556022;75;767;-58
2022/11/02 02:14:32;;;;;;;;;;;23.50;64.10;;;;;;1556614;75;782;-58
2022/11/02 02:16:48;;;;;;;;;;;23.50;64.10;;;;;;1552491;75;1112;-58
2022/11/02 02:18:57;;;;;;;;;;;23.50;64.10;;;;;;1546426;75;1947;-57
2022/11/02 02:21:18;;;;;;;;;;;23.50;64.10;;;;;;1548921;75;704;-57
2022/11/02 02:23:34;;;;;;;;;;;23.50;64.10;;;;;;1553990;75;1814;-57
2022/11/02 02:25:40;;;;;;;;;;;23.50;64.10;;;;;;1558578;75;865;-56
2022/11/02 02:28:00;;;;;;;;;;;23.50;64.10;;;;;;1563382;75;1850;-57
2022/11/02 02:30:06;;;;;;;;;;;23.60;64.10;;;;;;1557642;75;650;-58
2022/11/02 02:32:12;;;;;;;;;;;23.60;63.70;;;;;;1557409;75;730;-57
2022/11/02 02:34:15;;;;;;;;;;;23.60;63.50;;;;;;1564545;75;1678;-57
2022/11/02 02:36:22;;;;;;;;;;;23.60;63.40;;;;;;1562931;75;1541;-58
2022/11/02 02:38:34;;;;;;;;;;;23.60;63.50;;;;;;1559105;75;706;-58
2022/11/02 02:40:38;;;;;;;;;;;23.60;63.40;;;;;;1549391;75;1946;-56
2022/11/02 02:42:41;;;;;;;;;;;23.60;63.30;;;;;;1546345;75;1016;-57
2022/11/02 02:44:45;;;;;;;;;;;23.60;63.20;;;;;;1539889;75;1664;-57
2022/11/02 02:46:48;;;;;;;;;;;23.70;63.20;;;;;;1560354;75;1148;-57
2022/11/02 02:48:50;;;;;;;;;;;23.70;63.10;;;;;;1550044;75;1818;-57
2022/11/02 02:50:56;;;;;;;;;;;23.70;63.10;;;;;;1558844;75;1536;-55
2022/11/02 02:52:58;;;;;;;;;;;23.70;63.10;;;;;;1537849;75;748;-57
2022/11/02 02:55:00;;;;;;;;;;;23.70;63.10;;;;;;1559163;75;866;-57
2022/11/02 02:57:03;;;;;;;;;;;23.60;63.10;;;;;;1561217;76;1146;-57
2022/11/02 02:59:06;;;;;;;;;;;23.60;63.20;;;;;;1558765;76;1933;-57
2022/11/02 03:01:09;;;;;;;;;;;23.60;63.40;;;;;;1548484;75;708;-57
2022/11/02 03:03:13;;;;;;;;;;;23.60;63.40;;;;;;1552294;76;1127;-56
2022/11/02 03:05:24;;;;;;;;;;;23.70;63.50;;;;;;1536021;76;1901;-58
2022/11/02 03:07:28;;;;;;;;;;;23.60;63.20;;;;;;1539625;76;1195;-57
2022/11/02 03:09:47;;;;;;;;;;;23.70;63.10;;;;;;1539545;76;855;-55
2022/11/02 03:11:50;;;;;;;;;;;23.60;63.10;;;;;;1543118;76;1175;-56
2022/11/02 03:13:59;;;;;;;;;;;23.60;63.10;;;;;;1541809;76;801;-57
2022/11/02 03:16:03;;;;;;;;;;;23.70;63.20;;;;;;1535515;76;1103;-57
2022/11/02 03:18:09;;;;;;;;;;;23.60;63.20;;;;;;1539378;76;1554;-53
2022/11/02 03:20:12;;;;;;;;;;;23.70;63.30;;;;;;1543429;76;1937;-56
2022/11/02 03:22:16;;;;;;;;;;;23.60;63.20;;;;;;1538957;76;1913;-57
2022/11/02 03:24:19;;;;;;;;;;;23.60;63.30;;;;;;1538804;76;1812;-58
2022/11/02 03:26:35;;;;;;;;;;;23.60;63.40;;;;;;1538961;76;1193;-55
2022/11/02 03:28:44;;;;;;;;;;;23.60;63.40;;;;;;1537434;76;1625;-58
2022/11/02 03:30:47;;;;;;;;;;;23.60;63.50;;;;;;1539070;76;1493;-58
2022/11/02 03:33:08;;;;;;;;;;;23.60;63.50;;;;;;1536275;76;1606;-57
2022/11/02 03:35:12;;;;;;;;;;;23.60;63.40;;;;;;1536922;76;756;-56
2022/11/02 03:37:20;;;;;;;;;;;23.60;63.30;;;;;;1539015;76;1150;-58
2022/11/02 03:39:26;;;;;;;;;;;23.60;63.40;;;;;;1538971;76;1935;-57
2022/11/02 03:41:28;;;;;;;;;;;23.60;63.40;;;;;;1539851;76;1981;-57
2022/11/02 03:43:30;;;;;;;;;;;23.60;63.60;;;;;;1541134;76;807;-58
2022/11/02 03:45:36;;;;;;;;;;;23.60;63.40;;;;;;1510612;77;793;-56
2022/11/02 03:47:38;;;;;;;;;;;23.60;63.40;;;;;;1475973;79;1490;-57
2022/11/02 03:49:40;;;;;;;;;;;23.60;63.40;;;;;;1534214;76;752;-57
2022/11/02 03:51:42;;;;;;;;;;;23.60;63.20;;;;;;1538370;76;564;-56
2022/11/02 03:53:45;;;;;;;;;;;23.60;63.00;;;;;;1536184;76;692;-57
2022/11/02 03:55:48;;;;;;;;;;;23.60;63.00;;;;;;1541945;76;775;-57
2022/11/02 03:57:50;;;;;;;;;;;23.70;63.00;;;;;;1539775;76;1137;-57
2022/11/02 03:59:52;;;;;;;;;;;23.70;63.10;;;;;;1536616;76;1939;-58
2022/11/02 04:01:54;;;;;;;;;;;23.60;63.00;;;;;;1541298;76;698;-57
2022/11/02 04:03:56;;;;;;;;;;;23.70;63.10;;;;;;1551260;74;1079;-58
2022/11/02 04:05:58;;;;;;;;;;;23.80;63.00;;;;;;1561426;74;1217;-57
2022/11/02 04:10:20;;;;;;;;;;;23.70;63.00;;;;;;1567429;74;1616;-57
2022/11/02 04:14:42;;;;;;;;;;;23.70;63.10;;;;;;1554128;74;1653;-56
2022/11/02 04:16:44;;;;;;;;;;;23.60;63.00;;;;;;1557861;74;1138;-57
2022/11/02 04:21:05;;;;;;;;;;;23.60;63.00;;;;;;1561145;74;1882;-58
2022/11/02 04:25:28;;;;;;;;;;;23.60;63.20;;;;;;1565233;74;1646;-58
2022/11/02 04:27:30;;;;;;;;;;;23.50;63.30;;;;;;1565935;74;1180;-58
2022/11/02 04:29:31;;;;;;;;;;;23.50;63.50;;;;;;1537744;76;1623;-58
2022/11/02 04:31:33;;;;;;;;;;;23.50;63.60;;;;;;1567484;74;937;-57
2022/11/02 04:33:35;;;;;;;;;;;23.50;63.60;;;;;;1565703;74;780;-57
2022/11/02 04:35:37;;;;;;;;;;;23.50;63.70;;;;;;1566969;74;774;-58
2022/11/02 04:40:02;;;;;;;;;;;23.50;63.70;;;;;;1556478;74;1896;-58
2022/11/02 04:42:04;;;;;;;;;;;23.50;63.70;;;;;;1563388;74;1548;-57
2022/11/02 04:44:06;;;;;;;;;;;23.50;63.60;;;;;;1561801;74;726;-57
2022/11/02 04:46:08;;;;;;;;;;;23.50;63.50;;;;;;1564540;74;1114;-58
2022/11/02 04:48:09;;;;;;;;;;;23.50;63.40;;;;;;1556746;74;795;-58
2022/11/02 04:50:11;;;;;;;;;;;23.50;63.50;;;;;;1568210;74;731;-56
2022/11/02 04:52:14;;;;;;;;;;;23.50;63.60;;;;;;1557617;74;716;-56
2022/11/02 04:54:15;;;;;;;;;;;23.50;63.50;;;;;;1569747;74;831;-56
2022/11/02 04:56:17;;;;;;;;;;;23.50;63.50;;;;;;1576363;74;1571;-56
2022/11/02 04:58:19;;;;;;;;;;;23.50;63.40;;;;;;1567648;74;742;-56
2022/11/02 05:00:21;;;;;;;;;;;23.60;63.20;;;;;;1567226;74;1906;-56
2022/11/02 05:02:23;;;;;;;;;;;23.50;63.00;;;;;;1576530;74;724;-56
2022/11/02 05:04:25;;;;;;;;;;;23.60;63.20;;;;;;1572898;74;1085;-54
2022/11/02 05:06:27;;;;;;;;;;;23.60;63.00;;;;;;1576366;75;1186;-55
2022/11/02 05:08:29;;;;;;;;;;;23.60;63.00;;;;;;1570109;74;764;-56
2022/11/02 05:10:31;;;;;;;;;;;23.60;63.00;;;;;;1562341;74;1551;-56
2022/11/02 05:12:33;;;;;;;;;;;23.60;62.90;;;;;;1567085;75;753;-55
2022/11/02 05:14:35;;;;;;;;;;;23.60;62.90;;;;;;1556495;75;790;-56
2022/11/02 05:16:37;;;;;;;;;;;23.60;62.80;;;;;;1551819;75;1149;-57
2022/11/02 05:18:39;;;;;;;;;;;23.60;62.90;;;;;;1569546;75;710;-56
2022/11/02 05:20:41;;;;;;;;;;;23.60;62.90;;;;;;1556843;75;1907;-56
2022/11/02 05:22:43;;;;;;;;;;;23.60;63.00;;;;;;1555579;75;698;-56
2022/11/02 05:24:45;;;;;;;;;;;23.60;63.10;;;;;;1561632;75;1515;-56
2022/11/02 05:26:47;;;;;;;;;;;23.60;63.20;;;;;;1570440;75;1110;-56
2022/11/02 05:28:51;;;;;;;;;;;23.50;63.30;;;;;;1567676;75;790;-55
2022/11/02 05:30:53;;;;;;;;;;;23.50;63.40;;;;;;1558669;75;741;-55
2022/11/02 05:32:56;;;;;;;;;;;23.50;63.50;;;;;;1575681;75;768;-56
2022/11/02 05:34:58;;;;;;;;;;;23.50;63.60;;;;;;1575342;75;731;-56
2022/11/02 05:37:00;;;;;;;;;;;23.50;63.70;;;;;;1571939;75;1132;-55
2022/11/02 05:39:01;;;;;;;;;;;23.50;63.70;;;;;;1565883;75;1537;-56
2022/11/02 05:41:03;;;;;;;;;;;23.50;63.80;;;;;;1570658;75;1930;-56
2022/11/02 05:43:07;;;;;;;;;;;23.50;63.80;;;;;;1574916;75;765;-56
2022/11/02 05:45:09;;;;;;;;;;;23.40;63.80;;;;;;1576292;75;975;-55
2022/11/02 05:47:11;;;;;;;;;;;23.50;63.70;;;;;;1552341;75;1168;-56
2022/11/02 05:49:13;;;;;;;;;;;23.50;63.50;;;;;;1566817;75;836;-56
2022/11/02 05:51:15;;;;;;;;;;;23.50;63.50;;;;;;1569023;75;700;-56
2022/11/02 05:53:17;;;;;;;;;;;23.50;63.50;;;;;;1565009;75;1549;-55
2022/11/02 05:55:19;;;;;;;;;;;23.50;63.70;;;;;;1571519;75;796;-56
2022/11/02 05:57:21;;;;;;;;;;;23.40;63.70;;;;;;1563691;75;1156;-55
2022/11/02 05:59:22;;;;;;;;;;;23.40;63.90;;;;;;1573235;75;711;-56
2022/11/02 06:01:24;;;;;;;;;;;23.30;63.90;;;;;;1561496;75;1950;-56
2022/11/02 06:03:26;;;;;;;;;;;23.30;64.10;;;;;;1574127;75;780;-57
2022/11/02 06:05:28;;;;;;;;;;;23.40;63.90;;;;;;1566746;74;1523;-57
2022/11/02 06:07:30;;;;;;;;;;;23.40;63.80;;;;;;1578930;74;1572;-54
2022/11/02 06:09:32;;;;;;;;;;;23.40;63.80;;;;;;1576219;74;756;-57
2022/11/02 06:11:34;;;;;;;;;;;23.40;63.90;;;;;;1573243;74;771;-57
2022/11/02 06:13:35;;;;;;;;;;;23.30;64.00;;;;;;1564790;74;801;-58
2022/11/02 06:15:37;;;;;;;;;;;23.40;64.10;;;;;;1568032;74;771;-58
2022/11/02 06:17:39;;;;;;;;;;;23.30;64.10;;;;;;1584945;74;1129;-55
2022/11/02 06:19:41;;;;;;;;;;;23.30;64.20;;;;;;1573688;74;901;-57
2022/11/02 06:21:43;;;;;;;;;;;23.40;63.90;;;;;;1564008;74;1929;-56
2022/11/02 06:23:48;;;;;;;;;;;23.40;63.70;;;;;;1566733;74;751;-57
2022/11/02 06:25:51;;;;;;;;;;;23.40;63.60;;;;;;1562660;74;693;-56
2022/11/02 06:27:55;;;;;;;;;;;23.40;63.50;;;;;;1561382;74;1182;-57
2022/11/02 06:29:56;;;;;;;;;;;23.40;63.50;;;;;;1563857;74;620;-58
2022/11/02 06:31:58;;;;;;;;;;;23.40;63.50;;;;;;1568249;74;606;-58
2022/11/02 06:34:00;;;;;;;;;;;23.40;63.50;;;;;;1568805;74;821;-57
2022/11/02 06:36:02;;;;;;;;;;;23.30;63.40;;;;;;1562385;74;1552;-56
2022/11/02 06:38:04;;;;;;;;;;;23.50;63.50;;;;;;1563519;74;815;-58
2022/11/02 06:40:06;;;;;;;;;;;23.40;63.20;;;;;;1560477;74;1932;-58
2022/11/02 06:42:09;;;;;;;;;;;23.50;63.10;;;;;;1565865;74;744;-59
2022/11/02 06:44:10;;;;;;;;;;;23.50;62.90;;;;;;1564195;74;714;-55
2022/11/02 06:46:12;;;;;;;;;;;23.50;63.00;;;;;;1557663;74;1130;-58
2022/11/02 06:48:14;;;;;;;;;;;23.50;63.00;;;;;;1564180;74;789;-57
2022/11/02 06:50:16;;;;;;;;;;;23.50;63.00;;;;;;1564184;74;1547;-56
2022/11/02 06:52:18;;;;;;;;;;;23.40;62.90;;;;;;1567441;74;734;-56
2022/11/02 06:54:20;;;;;;;;;;;23.40;62.90;;;;;;1567939;74;757;-58
2022/11/02 06:56:22;;;;;;;;;;;23.40;63.00;;;;;;1570306;74;1115;-57
2022/11/02 06:58:24;;;;;;;;;;;23.30;63.00;;;;;;1565997;74;765;-56
2022/11/02 07:00:25;;;;;;;;;;;23.40;63.00;;;;;;1567330;74;1927;-57
2022/11/02 07:02:27;;;;;;;;;;;23.40;63.10;;;;;;1563080;74;751;-57
2022/11/02 07:04:29;;;;;;;;;;;23.40;63.00;;;;;;1566008;74;1608;-57
2022/11/02 07:06:31;;;;;;;;;;;23.40;62.90;;;;;;1567549;74;1143;-57
2022/11/02 07:08:33;;;;;;;;;;;23.30;62.80;;;;;;1568470;74;745;-58
2022/11/02 07:10:35;;;;;;;;;;;23.40;62.80;;;;;;1577211;74;786;-58
2022/11/02 07:12:37;;;;;;;;;;;23.30;62.80;;;;;;1564649;74;795;-58
2022/11/02 07:14:39;;;;;;;;;;;23.40;62.90;;;;;;1568071;74;770;-57
2022/11/02 07:16:40;;;;;;;;;;;23.30;62.90;;;;;;1561632;74;1162;-57
2022/11/02 07:18:42;;;;;;;;;;;23.30;62.90;;;;;;1562468;74;687;-57
2022/11/02 07:20:44;;;;;;;;;;;23.40;62.80;;;;;;1563233;74;1924;-58
2022/11/02 07:22:53;;;;;;;;;;;23.40;62.80;;;;;;1575314;74;690;-57
2022/11/02 07:24:55;;;;;;;;;;;23.40;62.80;;;;;;1553465;74;810;-57
2022/11/02 07:26:57;;;;;;;;;;;23.40;62.70;;;;;;1568833;74;1152;-57
2022/11/02 07:28:58;;;;;;;;;;;23.30;62.80;;;;;;1555992;74;760;-57
2022/11/02 07:31:00;;;;;;;;;;;23.40;62.70;;;;;;1554001;74;1545;-57
2022/11/02 07:33:02;;;;;;;;;;;23.50;62.80;;;;;;1563941;74;788;-57
2022/11/02 07:35:05;;;;;;;;;;;23.40;62.60;;;;;;1556771;74;732;-57
2022/11/02 07:37:07;;;;;;;;;;;23.50;62.60;;;;;;1559914;74;1130;-57
2022/11/02 07:39:09;;;;;;;;;;;23.40;62.40;;;;;;1562597;74;745;-56
2022/11/02 07:41:11;;;;;;;;;;;23.40;62.40;;;;;;1554448;74;1945;-56
2022/11/02 07:43:13;;;;;;;;;;;23.40;62.40;;;;;;1553981;74;750;-58
2022/11/02 07:45:15;;;;;;;;;;;23.30;62.50;;;;;;1556617;74;1523;-57
2022/11/02 07:47:16;;;;;;;;;;;23.50;62.70;;;;;;1557266;74;1110;-57
2022/11/02 07:49:18;;;;;;;;;;;23.30;62.50;;;;;;1557969;74;722;-58
2022/11/02 07:51:20;;;;;;;;;;;23.50;62.60;;;;;;1557047;74;775;-57
2022/11/02 07:53:22;;;;;;;;;;;23.30;62.60;;;;;;1565758;74;778;-57
2022/11/02 07:55:25;;;;;;;;;;;23.40;62.70;;;;;;1568086;74;748;-56
2022/11/02 07:57:27;;;;;;;;;;;23.30;62.70;;;;;;1567167;74;1119;-57
2022/11/02 07:59:29;;;;;;;;;;;23.30;62.80;;;;;;1570094;74;1555;-58
2022/11/02 08:01:30;;;;;;;;;;;23.30;62.80;;;;;;1572040;74;1921;-57
2022/11/02 08:03:32;;;;;;;;;;;23.30;62.90;;;;;;1570183;74;732;-57
2022/11/02 08:05:35;;;;;;;;;;;23.30;62.90;;;;;;1560756;74;1131;-56
2022/11/02 08:07:37;;;;;;;;;;;23.30;62.90;;;;;;1563158;74;1111;-58
2022/11/02 08:09:38;;;;;;;;;;;23.30;62.90;;;;;;1569052;74;801;-57
2022/11/02 08:11:41;;;;;;;;;;;23.40;63.00;;;;;;1564650;74;776;-58
2022/11/02 08:13:42;;;;;;;;;;;23.30;63.00;;;;;;1567898;74;1565;-58
2022/11/02 08:15:44;;;;;;;;;;;23.40;62.90;;;;;;1551105;74;795;-58
2022/11/02 08:17:46;;;;;;;;;;;23.40;62.70;;;;;;1566729;74;1194;-60
2022/11/02 08:19:48;;;;;;;;;;;23.40;62.70;;;;;;1569675;74;723;-59
2022/11/02 08:21:51;;;;;;;;;;;23.40;62.80;;;;;;1563834;74;1943;-58
2022/11/02 08:23:54;;;;;;;;;;;23.50;62.80;;;;;;1570958;74;736;-58
2022/11/02 08:25:57;;;;;;;;;;;23.50;62.70;;;;;;1569702;74;1120;-58
2022/11/02 08:27:59;;;;;;;;;;;23.50;62.70;;;;;;1565866;74;1282;-58
2022/11/02 08:30:01;;;;;;;;;;;23.50;63.10;;;;;;1563755;74;754;-58
2022/11/02 08:32:03;;;;;;;;;;;23.30;63.20;;;;;;1546998;74;750;-58
2022/11/02 08:34:05;;;;;;;;;;;23.40;62.90;;;;;;1550253;74;666;-57
2022/11/02 08:36:07;;;;;;;;;;;23.50;63.00;;;;;;1559743;74;1157;-57
2022/11/02 08:38:09;;;;;;;;;;;23.50;62.50;;;;;;1559224;74;702;-57
2022/11/02 08:40:11;;;;;;;;;;;23.50;63.00;;;;;;1560722;74;739;-58
2022/11/02 08:42:13;;;;;;;;;;;23.50;63.20;;;;;;1556525;74;1922;-57
2022/11/02 08:44:15;;;;;;;;;;;23.50;63.10;;;;;;1566984;74;813;-56
2022/11/02 08:46:16;;;;;;;;;;;23.50;63.30;;;;;;1565438;74;1114;-58
2022/11/02 08:48:18;;;;;;;;;;;23.50;62.70;;;;;;1567515;74;748;-58
2022/11/02 08:50:20;;;;;;;;;;;23.50;62.30;;;;;;1575363;74;818;-59
2022/11/02 08:52:22;;;;;;;;;;;23.50;62.10;;;;;;1572820;74;787;-59
2022/11/02 08:54:24;;;;;;;;;;;23.50;62.50;;;;;;1575375;74;742;-57
2022/11/02 08:56:26;;;;;;;;;;;23.60;62.40;;;;;;1567751;74;1529;-57
2022/11/02 08:58:28;;;;;;;;;;;23.50;61.20;;;;;;1569064;74;772;-57
2022/11/02 09:00:30;;;;;;;;;;;23.60;61.60;;;;;;1578527;74;734;-55
2022/11/02 09:02:32;;;;;;;;;;;23.60;61.30;;;;;;1566987;74;1939;-55
2022/11/02 09:04:34;;;;;;;;;;;23.70;60.90;;;;;;1578739;74;959;-57
2022/11/02 09:06:36;;;;;;;;;;;23.70;60.60;;;;;;1569516;74;1119;-56
2022/11/02 09:08:37;;;;;;;;;;;23.90;60.30;;;;;;1578268;75;701;-58
2022/11/02 09:10:39;;;;;;;;;;;23.80;59.70;;;;;;1570360;75;1566;-57
2022/11/02 09:12:41;;;;;;;;;;;23.80;59.70;;;;;;1557783;75;739;-57
2022/11/02 09:14:43;;;;;;;;;;;23.80;59.60;;;;;;1559927;75;668;-58
2022/11/02 09:16:45;;;;;;;;;;;23.80;59.30;;;;;;1563460;75;1192;-54
2022/11/02 09:18:47;;;;;;;;;;;23.80;59.20;;;;;;1573835;75;817;-54
2022/11/02 09:20:50;;;;;;;;;;;23.70;59.00;;;;;;1563322;75;667;-58
2022/11/02 09:22:51;;;;;;;;;;;23.70;59.10;;;;;;1562944;75;1926;-55
2022/11/02 09:24:53;;;;;;;;;;;23.70;59.10;;;;;;1558031;75;1632;-56
2022/11/02 09:26:55;;;;;;;;;;;23.70;58.80;;;;;;1565163;75;1122;-58
2022/11/02 09:28:57;;;;;;;;;;;23.70;58.70;;;;;;1555568;75;678;-58
2022/11/02 09:30:59;;;;;;;;;;;23.80;58.30;;;;;;1555397;75;776;-59
2022/11/02 09:33:02;;;;;;;;;;;23.80;58.00;;;;;;1570321;75;755;-55
2022/11/02 09:35:05;;;;;;;;;;;23.70;57.70;;;;;;1558069;75;771;-58
2022/11/02 09:37:06;;;;;;;;;;;23.70;57.90;;;;;;1567998;75;1194;-56
2022/11/02 09:39:08;;;;;;;;;;;23.70;57.60;;;;;;1547667;75;1658;-58
2022/11/02 09:41:12;;;;;;;;;;;23.80;57.50;;;;;;1561299;75;745;-58
2022/11/02 09:43:16;;;;;;;;;;;23.70;57.30;;;;;;1543687;75;775;-58
2022/11/02 09:45:18;;;;;;;;;;;23.70;57.20;;;;;;1548897;75;2252;-57
2022/11/02 09:47:19;;;;;;;;;;;23.70;57.30;;;;;;1545855;75;1142;-55
2022/11/02 09:49:22;;;;;;;;;;;23.70;57.10;;;;;;1555837;75;719;-58
2022/11/02 09:51:26;;;;;;;;;;;23.70;56.90;;;;;;1565356;75;1471;-58
2022/11/02 09:53:46;;;;;;;;;;;23.80;56.80;;;;;;1547246;75;971;-55
2022/11/02 09:55:54;;;;;;;;;;;23.80;56.70;;;;;;1544753;75;709;-57
2022/11/02 09:57:57;;;;;;;;;;;23.80;56.50;;;;;;1562750;75;817;-56
2022/11/02 09:59:59;;;;;;;;;;;23.90;56.50;;;;;;1565581;75;2043;-57
2022/11/02 10:02:19;;;;;;;;;;;23.90;56.50;;;;;;1567089;75;1919;-58
2022/11/02 10:04:38;;;;;;;;;;;23.80;56.40;;;;;;1565748;75;927;-58
2022/11/02 10:06:40;;;;;;;;;;;23.80;56.30;;;;;;1549226;75;1781;-60
2022/11/02 10:08:59;;;;;;;;;;;23.70;56.40;;;;;;1572963;74;606;-58
2022/11/02 10:11:05;;;;;;;;;;;23.70;56.30;;;;;;1563662;74;1463;-58
2022/11/02 10:13:14;;;;;;;;;;;23.70;56.30;;;;;;1567181;74;758;-60
2022/11/02 10:15:18;;;;;;;;;;;23.70;56.20;;;;;;1558365;74;761;-60
2022/11/02 10:17:24;;;;;;;;;;;23.60;55.20;;;;;;1567314;74;2134;-59
2022/11/02 10:19:26;;;;;;;;;;;23.60;55.20;;;;;;1556087;74;812;-59
2022/11/02 10:21:34;;;;;;;;;;;23.60;55.30;;;;;;1550878;74;1951;-59
2022/11/02 10:23:37;;;;;;;;;;;23.60;55.00;;;;;;1562267;74;737;-57
2022/11/02 10:25:39;;;;;;;;;;;23.60;55.10;;;;;;1563990;74;826;-59
2022/11/02 10:27:41;;;;;;;;;;;23.60;54.90;;;;;;1554865;74;1120;-59
2022/11/02 10:29:54;;;;;;;;;;;23.60;54.90;;;;;;1560136;74;673;-59
2022/11/02 10:31:56;;;;;;;;;;;23.60;54.70;;;;;;1563266;74;736;-58
2022/11/02 10:33:59;;;;;;;;;;;23.60;54.80;;;;;;1575405;74;1558;-59
2022/11/02 10:36:11;;;;;;;;;;;23.70;54.80;;;;;;1563391;74;1189;-59
2022/11/02 10:38:15;;;;;;;;;;;23.70;54.60;;;;;;1563672;74;2027;-58
2022/11/02 10:40:18;;;;;;;;;;;23.70;54.60;;;;;;1566453;74;2030;-59
2022/11/02 10:42:22;;;;;;;;;;;23.60;54.40;;;;;;1570430;74;1910;-59
2022/11/02 10:44:32;;;;;;;;;;;23.60;54.20;;;;;;1555624;74;820;-57
2022/11/02 10:46:37;;;;;;;;;;;23.60;54.20;;;;;;1579609;74;1182;-58
2022/11/02 10:48:49;;;;;;;;;;;23.70;54.30;;;;;;1553859;74;1566;-60
2022/11/02 10:51:02;;;;;;;;;;;23.70;54.10;;;;;;1569027;74;1943;-59
2022/11/02 10:53:03;;;;;;;;;;;23.60;53.90;;;;;;1570941;74;776;-58
2022/11/02 10:55:07;;;;;;;;;;;23.70;53.90;;;;;;1566813;74;727;-58
2022/11/02 10:57:13;;;;;;;;;;;23.70;53.80;;;;;;1561523;74;1160;-59
2022/11/02 10:59:16;;;;;;;;;;;23.60;53.70;;;;;;1556045;74;746;-58
2022/11/02 11:01:18;;;;;;;;;;;23.60;53.60;;;;;;1561303;74;1053;-59
2022/11/02 11:03:20;;;;;;;;;;;23.60;53.60;;;;;;1562758;74;1962;-60
2022/11/02 11:05:22;;;;;;;;;;;23.70;53.60;;;;;;1562292;74;588;-58
2022/11/02 11:07:25;;;;;;;;;;;23.70;53.40;;;;;;1568795;74;1163;-58
2022/11/02 11:09:35;;;;;;;;;;;23.60;53.40;;;;;;1560432;75;739;-58
2022/11/02 11:11:37;;;;;;;;;;;23.60;53.40;;;;;;1560221;75;721;-60
2022/11/02 11:13:39;;;;;;;;;;;23.60;53.30;;;;;;1567858;75;759;-59
2022/11/02 11:15:41;;;;;;;;;;;23.60;53.20;;;;;;1556489;75;814;-58
2022/11/02 11:17:43;;;;;;;;;;;23.60;53.10;;;;;;1553983;75;1759;-58
2022/11/02 11:19:49;;;;;;;;;;;23.60;53.10;;;;;;1559219;76;772;-56
2022/11/02 11:21:51;;;;;;;;;;;23.60;53.10;;;;;;1555921;75;1932;-56
2022/11/02 11:23:54;;;;;;;;;;;23.60;53.30;;;;;;1551351;75;768;-57
2022/11/02 11:25:58;;;;;;;;;;;23.60;53.30;;;;;;1552536;75;1515;-59
2022/11/02 11:28:00;;;;;;;;;;;23.50;53.00;;;;;;1550560;75;696;-58
2022/11/02 11:30:02;;;;;;;;;;;23.50;53.10;;;;;;1555964;76;1539;-60
2022/11/02 11:32:04;;;;;;;;;;;23.50;52.90;;;;;;1567471;75;734;-59
2022/11/02 11:34:07;;;;;;;;;;;23.50;53.00;;;;;;1550882;75;689;-57
2022/11/02 11:36:10;;;;;;;;;;;23.50;53.10;;;;;;1552450;75;1167;-58
2022/11/02 11:38:15;;;;;;;;;;;23.40;53.30;;;;;;1549724;75;740;-59
2022/11/02 11:40:17;;;;;;;;;;;23.50;53.40;;;;;;1556646;75;755;-58
2022/11/02 11:42:20;;;;;;;;;;;23.50;53.60;;;;;;1546586;75;1931;-57
2022/11/02 11:44:22;;;;;;;;;;;23.60;53.50;;;;;;1555207;75;1390;-58
2022/11/02 11:46:24;;;;;;;;;;;23.60;53.60;;;;;;1560057;75;1150;-59
2022/11/02 11:48:39;;;;;;;;;;;23.60;53.50;;;;;;1525807;76;913;-60
2022/11/02 11:50:42;;;;;;;;;;;23.60;53.60;;;;;;1546812;75;733;-58
2022/11/02 11:52:44;;;;;;;;;;;23.60;53.60;;;;;;1550474;75;1474;-58
2022/11/02 11:54:52;;;;;;;;;;;23.50;53.70;;;;;;1547092;75;785;-57
2022/11/02 11:56:56;;;;;;;;;;;23.60;53.90;;;;;;1543587;75;1138;-59
2022/11/02 11:58:58;;;;;;;;;;;23.50;54.00;;;;;;1557700;75;1452;-56
2022/11/02 12:01:04;;;;;;;;;;;23.60;54.10;;;;;;1558196;75;764;-57
2022/11/02 12:03:08;;;;;;;;;;;23.60;54.10;;;;;;1543709;75;1912;-56
2022/11/02 12:05:14;;;;;;;;;;;23.60;54.20;;;;;;1552618;75;782;-55
2022/11/02 12:07:24;;;;;;;;;;;23.60;54.40;;;;;;1555796;75;1195;-56
2022/11/02 12:09:30;;;;;;;;;;;23.60;54.40;;;;;;1563690;74;1041;-57
2022/11/02 12:11:49;;;;;;;;;;;23.60;54.40;;;;;;1567758;74;728;-57
2022/11/02 12:14:02;;;;;;;;;;;23.60;54.70;;;;;;1553817;74;1581;-59
2022/11/02 12:16:08;;;;;;;;;;;23.60;54.70;;;;;;1555365;74;1934;-58
2022/11/02 12:18:23;;;;;;;;;;;23.60;54.80;;;;;;1563724;74;1948;-59
2022/11/02 12:20:27;;;;;;;;;;;23.60;55.00;;;;;;1562432;74;749;-58
2022/11/02 12:22:36;;;;;;;;;;;23.60;55.10;;;;;;1560117;74;1939;-58
2022/11/02 12:24:55;;;;;;;;;;;23.60;55.70;;;;;;1488983;76;1242;-58